Map

Track Data

SID SEASON NUMBER BASIN SUBBASIN NAME ISO_TIME NATURE LAT LON WMO_WIND WMO_PRES WMO_AGENCY TRACK_TYPE DIST2LAND LANDFALL IFLAG USA_AGENCY USA_ATCF_ID USA_LAT USA_LON USA_RECORD USA_STATUS USA_WIND USA_PRES USA_SSHS USA_R34_NE USA_R34_SE USA_R34_SW USA_R34_NW USA_R50_NE USA_R50_SE USA_R50_SW USA_R50_NW USA_R64_NE USA_R64_SE USA_R64_SW USA_R64_NW USA_POCI USA_ROCI USA_RMW USA_EYE TOKYO_LAT TOKYO_LON TOKYO_GRADE TOKYO_WIND TOKYO_PRES TOKYO_R50_DIR TOKYO_R50_LONG TOKYO_R50_SHORT TOKYO_R30_DIR TOKYO_R30_LONG TOKYO_R30_SHORT TOKYO_LAND CMA_LAT CMA_LON CMA_CAT CMA_WIND CMA_PRES HKO_LAT HKO_LON HKO_CAT HKO_WIND HKO_PRES NEWDELHI_LAT NEWDELHI_LON NEWDELHI_GRADE NEWDELHI_WIND NEWDELHI_PRES NEWDELHI_CI NEWDELHI_DP NEWDELHI_POCI REUNION_LAT REUNION_LON REUNION_TYPE REUNION_WIND REUNION_PRES REUNION_TNUM REUNION_CI REUNION_RMW REUNION_R34_NE REUNION_R34_SE REUNION_R34_SW REUNION_R34_NW REUNION_R50_NE REUNION_R50_SE REUNION_R50_SW REUNION_R50_NW REUNION_R64_NE REUNION_R64_SE REUNION_R64_SW REUNION_R64_NW BOM_LAT BOM_LON BOM_TYPE BOM_WIND BOM_PRES BOM_TNUM BOM_CI BOM_RMW BOM_R34_NE BOM_R34_SE BOM_R34_SW BOM_R34_NW BOM_R50_NE BOM_R50_SE BOM_R50_SW BOM_R50_NW BOM_R64_NE BOM_R64_SE BOM_R64_SW BOM_R64_NW BOM_ROCI BOM_POCI BOM_EYE BOM_POS_METHOD BOM_PRES_METHOD NADI_LAT NADI_LON NADI_CAT NADI_WIND NADI_PRES WELLINGTON_LAT WELLINGTON_LON WELLINGTON_WIND WELLINGTON_PRES DS824_LAT DS824_LON DS824_STAGE DS824_WIND DS824_PRES TD9636_LAT TD9636_LON TD9636_STAGE TD9636_WIND TD9636_PRES TD9635_LAT TD9635_LON TD9635_WIND TD9635_PRES TD9635_ROCI NEUMANN_LAT NEUMANN_LON NEUMANN_CLASS NEUMANN_WIND NEUMANN_PRES MLC_LAT MLC_LON MLC_CLASS MLC_WIND MLC_PRES USA_GUST BOM_GUST BOM_GUST_PER REUNION_GUST REUNION_GUST_PER USA_SEAHGT USA_SEARAD_NE USA_SEARAD_SE USA_SEARAD_SW USA_SEARAD_NW STORM_SPEED STORM_DIR
1892256N15343 1892 44 NA NA NOT_NAMED 1892-09-12 06:00:00 TS 14.9000 -17.2000 main 10 10 _____________O -1 14.9000 -17.2000 TD 30 8 279
1892256N15343 1892 44 NA NA NOT_NAMED 1892-09-12 09:00:00 TS 14.9626 -17.5999 main 35 35 _____________P -1 14.9626 -17.5999 TD 35 8 277
1892256N15343 1892 44 NA NA NOT_NAMED 1892-09-12 12:00:00 TS 15.0000 -18.0000 main 63 63 _____________O -1 15.0000 -18.0000 TS 40 8 273
1892256N15343 1892 44 NA NA NOT_NAMED 1892-09-12 15:00:00 TS 14.9999 -18.4001 main 102 102 _____________P -1 14.9999 -18.4001 TS 45 8 270
1892256N15343 1892 44 NA NA NOT_NAMED 1892-09-12 18:00:00 TS 15.0000 -18.8000 main 143 143 _____________O -1 15.0000 -18.8000 TS 50 8 274
1892256N15343 1892 44 NA NA NOT_NAMED 1892-09-12 21:00:00 TS 15.0499 -19.1999 main 185 185 _____________P -1 15.0499 -19.1999 TS 52 8 277
1892256N15343 1892 44 NA NA NOT_NAMED 1892-09-13 00:00:00 TS 15.1000 -19.6000 main 230 230 _____________O -1 15.1000 -19.6000 TS 55 8 274
1892256N15343 1892 44 NA NA NOT_NAMED 1892-09-13 03:00:00 TS 15.0999 -20.0001 main 272 272 _____________P -1 15.0999 -20.0001 TS 60 8 270
1892256N15343 1892 44 NA NA NOT_NAMED 1892-09-13 06:00:00 TS 15.1000 -20.4000 main 314 314 _____________O -1 15.1000 -20.4000 HU 65 8 273
1892256N15343 1892 44 NA NA NOT_NAMED 1892-09-13 09:00:00 TS 15.1424 -20.8000 main 357 357 _____________P -1 15.1424 -20.8000 HU 65 8 277
1892256N15343 1892 44 NA NA NOT_NAMED 1892-09-13 12:00:00 TS 15.2000 -21.2000 main 401 401 _____________O -1 15.2000 -21.2000 HU 65 8 279
1892256N15343 1892 44 NA NA NOT_NAMED 1892-09-13 15:00:00 TS 15.2574 -21.5925 main 445 445 _____________P -1 15.2574 -21.5925 HU 67 8 277
1892256N15343 1892 44 NA NA NOT_NAMED 1892-09-13 18:00:00 TS 15.3000 -22.0000 main 488 488 _____________O -1 15.3000 -22.0000 HU 70 8 273
1892256N15343 1892 44 NA NA NOT_NAMED 1892-09-13 21:00:00 TS 15.3075 -22.4500 main 541 541 _____________P -1 15.3075 -22.4500 HU 72 9 270
1892256N15343 1892 44 NA NA NOT_NAMED 1892-09-14 00:00:00 TS 15.3000 -22.9000 main 584 584 _____________O -1 15.3000 -22.9000 HU 75 8 269
1892256N15343 1892 44 NA NA NOT_NAMED 1892-09-14 03:00:00 TS 15.2999 -23.3075 main 626 626 _____________P -1 15.2999 -23.3075 HU 77 8 270
1892256N15343 1892 44 NA NA NOT_NAMED 1892-09-14 06:00:00 TS 15.3000 -23.7000 main 669 669 _____________O -1 15.3000 -23.7000 HU 80 7 269
1892256N15343 1892 44 NA NA NOT_NAMED 1892-09-14 09:00:00 TS 15.2923 -24.0776 main 712 712 _____________P -1 15.2923 -24.0776 HU 82 8 270
1892256N15343 1892 44 NA NA NOT_NAMED 1892-09-14 12:00:00 TS 15.3000 -24.5000 main 755 755 _____________O -1 15.3000 -24.5000 HU 85 9 273
1892256N15343 1892 44 NA NA NOT_NAMED 1892-09-14 15:00:00 TS 15.3425 -25.0275 main 808 808 _____________P -1 15.3425 -25.0275 HU 85 11 275
1892256N15343 1892 44 NA NA NOT_NAMED 1892-09-14 18:00:00 TS 15.4000 -25.6000 main 873 873 _____________O -1 15.4000 -25.6000 HU 85 11 276
1892256N15343 1892 44 NA NA NOT_NAMED 1892-09-14 21:00:00 TS 15.4499 -26.1500 main 937 937 _____________P -1 15.4499 -26.1500 HU 85 11 275
1892256N15343 1892 44 NA NA NOT_NAMED 1892-09-15 00:00:00 TS 15.5000 -26.7000 main 992 992 _____________O -1 15.5000 -26.7000 HU 85 11 276
1892256N15343 1892 44 NA NA NOT_NAMED 1892-09-15 03:00:00 TS 15.5574 -27.2575 main 1056 1056 _____________P -1 15.5574 -27.2575 HU 85 11 275
1892256N15343 1892 44 NA NA NOT_NAMED 1892-09-15 06:00:00 TS 15.6000 -27.8000 main 1110 1110 _____________O -1 15.6000 -27.8000 HU 85 10 272
1892256N15343 1892 44 NA NA NOT_NAMED 1892-09-15 09:00:00 TS 15.5922 -28.2927 main 1163 1163 _____________P -1 15.5922 -28.2927 HU 85 10 270
1892256N15343 1892 44 NA NA NOT_NAMED 1892-09-15 12:00:00 TS 15.6000 -28.8000 main 1217 1217 _____________O -1 15.6000 -28.8000 HU 85 11 275
1892256N15343 1892 44 NA NA NOT_NAMED 1892-09-15 15:00:00 TS 15.6925 -29.3849 main 1282 1282 _____________P -1 15.6925 -29.3849 HU 85 12 280
1892256N15343 1892 44 NA NA NOT_NAMED 1892-09-15 18:00:00 TS 15.8000 -30.0000 main 1346 1346 _____________O -1 15.8000 -30.0000 HU 85 12 278
1892256N15343 1892 44 NA NA NOT_NAMED 1892-09-15 21:00:00 TS 15.8498 -30.6002 main 1411 1411 _____________P -1 15.8498 -30.6002 HU 85 12 275
1892256N15343 1892 44 NA NA NOT_NAMED 1892-09-16 00:00:00 TS 15.9000 -31.2000 main 1475 1475 _____________O -1 15.9000 -31.2000 HU 85 12 277
1892256N15343 1892 44 NA NA NOT_NAMED 1892-09-16 03:00:00 TS 15.9999 -31.8074 main 1540 1540 _____________P -1 15.9999 -31.8074 HU 85 12 280
1892256N15343 1892 44 NA NA NOT_NAMED 1892-09-16 06:00:00 TS 16.1000 -32.4000 main 1605 1605 _____________O -1 16.1000 -32.4000 HU 85 11 275
1892256N15343 1892 44 NA NA NOT_NAMED 1892-09-16 09:00:00 TS 16.1049 -32.9730 main 1669 1669 _____________P -1 16.1049 -32.9730 HU 85 11 275
1892256N15343 1892 44 NA NA NOT_NAMED 1892-09-16 12:00:00 TS 16.2000 -33.5000 main 1723 1723 _____________O -1 16.2000 -33.5000 HU 85 11 295
1892256N15343 1892 44 NA NA NOT_NAMED 1892-09-16 15:00:00 TS 16.5473 -33.9649 main 1778 1778 _____________P -1 16.5473 -33.9649 HU 85 12 313
1892256N15343 1892 44 NA NA NOT_NAMED 1892-09-16 18:00:00 TS 17.0000 -34.4000 main 1825 1825 _____________O -1 17.0000 -34.4000 HU 85 12 315
1892256N15343 1892 44 NA NA NOT_NAMED 1892-09-16 21:00:00 TS 17.3924 -34.8503 main 1883 1883 _____________P -1 17.3924 -34.8503 HU 85 12 313
1892256N15343 1892 44 NA NA NOT_NAMED 1892-09-17 00:00:00 TS 17.8000 -35.3000 main 1931 1931 _____________O -1 17.8000 -35.3000 HU 85 12 315
1892256N15343 1892 44 NA NA NOT_NAMED 1892-09-17 03:00:00 TS 18.2499 -35.7576 main 1980 1978 _____________P -1 18.2499 -35.7576 HU 87 12 316
1892256N15343 1892 44 NA NA NOT_NAMED 1892-09-17 06:00:00 TS 18.7000 -36.2000 main 2011 2011 _____________O -1 18.7000 -36.2000 HU 90 12 318
1892256N15343 1892 44 NA NA NOT_NAMED 1892-09-17 09:00:00 TS 19.1072 -36.5855 main 2045 2043 _____________P -1 19.1072 -36.5855 HU 90 11 317
1892256N15343 1892 44 NA NA NOT_NAMED 1892-09-17 12:00:00 TS 19.5000 -37.0000 main 2080 2080 _____________O -1 19.5000 -37.0000 HU 90 12 312
1892256N15343 1892 44 NA NA NOT_NAMED 1892-09-17 15:00:00 TS 19.9075 -37.5275 main 2127 2127 _____________P -1 19.9075 -37.5275 HU 90 13 308
1892256N15343 1892 44 NA NA NOT_NAMED 1892-09-17 18:00:00 TS 20.3000 -38.1000 main 2185 2185 _____________O -1 20.3000 -38.1000 HU 90 13 304
1892256N15343 1892 44 NA NA NOT_NAMED 1892-09-17 21:00:00 TS 20.6501 -38.6802 main 2243 2243 _____________P -1 20.6501 -38.6802 HU 90 12 304
1892256N15343 1892 44 NA NA NOT_NAMED 1892-09-18 00:00:00 TS 21.0000 -39.2000 main 2281 2281 _____________O -1 21.0000 -39.2000 HU 90 11 311
1892256N15343 1892 44 NA NA NOT_NAMED 1892-09-18 03:00:00 TS 21.3997 -39.5877 main 2292 2292 _____________P -1 21.3997 -39.5877 HU 90 10 321
1892256N15343 1892 44 NA NA NOT_NAMED 1892-09-18 06:00:00 TS 21.8000 -39.9000 main 2307 2307 _____________O -1 21.8000 -39.9000 HU 90 9 323
1892256N15343 1892 44 NA NA NOT_NAMED 1892-09-18 09:00:00 TS 22.1347 -40.1782 main 2315 2315 _____________P -1 22.1347 -40.1782 HU 90 9 322
1892256N15343 1892 44 NA NA NOT_NAMED 1892-09-18 12:00:00 TS 22.5000 -40.5000 main 2332 2332 _____________O -1 22.5000 -40.5000 HU 90 11 319
1892256N15343 1892 44 NA NA NOT_NAMED 1892-09-18 15:00:00 TS 22.9776 -40.9699 main 2349 2349 _____________P -1 22.9776 -40.9699 HU 90 14 317
1892256N15343 1892 44 NA NA NOT_NAMED 1892-09-18 18:00:00 TS 23.5000 -41.5000 main 2368 2368 _____________O -1 23.5000 -41.5000 HU 90 14 317
1892256N15343 1892 44 NA NA NOT_NAMED 1892-09-18 21:00:00 TS 23.9998 -42.0004 main 2390 2390 _____________P -1 23.9998 -42.0004 HU 90 14 318
1892256N15343 1892 44 NA NA NOT_NAMED 1892-09-19 00:00:00 TS 24.5000 -42.5000 main 2414 2414 _____________O -1 24.5000 -42.5000 HU 90 14 318
1892256N15343 1892 44 NA NA NOT_NAMED 1892-09-19 03:00:00 TS 24.9998 -43.0004 main 2440 2408 _____________P -1 24.9998 -43.0004 HU 87 14 318
1892256N15343 1892 44 NA NA NOT_NAMED 1892-09-19 06:00:00 TS 25.5000 -43.5000 main 2408 2375 _____________O -1 25.5000 -43.5000 HU 85 14 319
1892256N15343 1892 44 NA NA NOT_NAMED 1892-09-19 09:00:00 TS 26.0222 -43.9927 main 2375 2344 _____________P -1 26.0222 -43.9927 HU 85 13 318
1892256N15343 1892 44 NA NA NOT_NAMED 1892-09-19 12:00:00 TS 26.5000 -44.5000 main 2344 2308 _____________O -1 26.5000 -44.5000 HU 85 13 312
1892256N15343 1892 44 NA NA NOT_NAMED 1892-09-19 15:00:00 TS 26.8724 -45.0431 main 2309 2260 _____________P -1 26.8724 -45.0431 HU 85 12 306
1892256N15343 1892 44 NA NA NOT_NAMED 1892-09-19 18:00:00 TS 27.2000 -45.6000 main 2260 2215 _____________O -1 27.2000 -45.6000 HU 85 12 305
1892256N15343 1892 44 NA NA NOT_NAMED 1892-09-19 21:00:00 TS 27.5498 -46.1503 main 2213 2158 _____________P -1 27.5498 -46.1503 HU 85 12 306
1892256N15343 1892 44 NA NA NOT_NAMED 1892-09-20 00:00:00 TS 27.9000 -46.7000 main 2158 2114 _____________O -1 27.9000 -46.7000 HU 85 12 306
1892256N15343 1892 44 NA NA NOT_NAMED 1892-09-20 03:00:00 TS 28.2574 -47.2577 main 2101 2058 _____________P -1 28.2574 -47.2577 HU 85 12 306
1892256N15343 1892 44 NA NA NOT_NAMED 1892-09-20 06:00:00 TS 28.6000 -47.8000 main 2058 2029 _____________O -1 28.6000 -47.8000 HU 85 11 304
1892256N15343 1892 44 NA NA NOT_NAMED 1892-09-20 09:00:00 TS 28.8618 -48.2717 main 2016 1974 _____________P -1 28.8618 -48.2717 HU 85 11 304
1892256N15343 1892 44 NA NA NOT_NAMED 1892-09-20 12:00:00 TS 29.2000 -48.8000 main 1974 1908 _____________O -1 29.2000 -48.8000 HU 85 14 308
1892256N15343 1892 44 NA NA NOT_NAMED 1892-09-20 15:00:00 TS 29.7560 -49.5709 main 1896 1820 _____________P -1 29.7560 -49.5709 HU 82 18 313
1892256N15343 1892 44 NA NA NOT_NAMED 1892-09-20 18:00:00 TS 30.4000 -50.3000 main 1820 1748 _____________O -1 30.4000 -50.3000 HU 80 16 320
1892256N15343 1892 44 NA NA NOT_NAMED 1892-09-20 21:00:00 TS 30.9995 -50.7777 main 1748 1680 _____________P -1 30.9995 -50.7777 HU 80 13 333
1892256N15343 1892 44 NA NA NOT_NAMED 1892-09-21 00:00:00 TS 31.6000 -51.0000 main 1680 1613 _____________O -1 31.6000 -51.0000 HU 80 12 351
1892256N15343 1892 44 NA NA NOT_NAMED 1892-09-21 03:00:00 TS 32.1998 -50.9907 main 1613 1549 _____________P -1 32.1998 -50.9907 HU 80 12 8
1892256N15343 1892 44 NA NA NOT_NAMED 1892-09-21 06:00:00 TS 32.8000 -50.8000 main 1549 1485 _____________O -1 32.8000 -50.8000 HU 80 13 16
1892256N15343 1892 44 NA NA NOT_NAMED 1892-09-21 09:00:00 TS 33.4300 -50.5803 main 1485 1423 _____________P -1 33.4300 -50.5803 HU 77 13 19
1892256N15343 1892 44 NA NA NOT_NAMED 1892-09-21 12:00:00 TS 34.0000 -50.3000 main 1423 1382 _____________O -1 34.0000 -50.3000 HU 75 11 25
1892256N15343 1892 44 NA NA NOT_NAMED 1892-09-21 15:00:00 TS 34.4374 -50.0145 main 1383 1345 _____________P -1 34.4374 -50.0145 HU 72 9 32
1892256N15343 1892 44 NA NA NOT_NAMED 1892-09-21 18:00:00 TS 34.8000 -49.7000 main 1345 1314 _____________O -1 34.8000 -49.7000 HU 70 8 29
1892256N15343 1892 44 NA NA NOT_NAMED 1892-09-21 21:00:00 TS 35.1468 -49.5270 main 1316 1281 _____________P -1 35.1468 -49.5270 HU 70 9 39
1892256N15343 1892 44 NA NA NOT_NAMED 1892-09-22 00:00:00 TS 35.5000 -49.0000 main 1283 1271 _____________O -1 35.5000 -49.0000 HU 70 17 63
1892256N15343 1892 44 NA NA NOT_NAMED 1892-09-22 03:00:00 TS 35.9029 -47.6739 main 1274 1273 _____________P -1 35.9029 -47.6739 HU 70 26 72
1892256N15343 1892 44 NA NA NOT_NAMED 1892-09-22 06:00:00 TS 36.3000 -46.0000 main 1291 1291 _____________O -1 36.3000 -46.0000 HU 70 26 76
1892256N15343 1892 44 NA NA NOT_NAMED 1892-09-22 09:00:00 TS 36.5419 -44.5275 main 1333 1328 _____________P -1 36.5419 -44.5275 HU 67 25 74
1892256N15343 1892 44 NA NA NOT_NAMED 1892-09-22 12:00:00 TS 37.0000 -43.0000 main 1357 1357 _____________O -1 37.0000 -43.0000 HU 65 30 61
1892256N15343 1892 44 NA NA NOT_NAMED 1892-09-22 15:00:00 TS 37.9943 -41.2912 main 1363 1360 _____________P -1 37.9943 -41.2912 HU 62 35 51
1892256N15343 1892 44 NA NA NOT_NAMED 1892-09-22 18:00:00 TS 39.2000 -39.5000 main 1379 1378 _____________O -1 39.2000 -39.5000 TS 60 36 51
1892256N15343 1892 44 NA NA NOT_NAMED 1892-09-22 21:00:00 TS 40.2549 -37.7441 main 1421 1421 _____________P -1 40.2549 -37.7441 TS 60 34 52
1892256N15343 1892 44 NA NA NOT_NAMED 1892-09-23 00:00:00 TS 41.3000 -36.0000 main 1479 1479 _____________O -1 41.3000 -36.0000 TS 60 34 51
1892256N15343 1892 44 NA NA NOT_NAMED 1892-09-23 03:00:00 TS 42.3474 -34.2442 main 1550 1547 _____________P -1 42.3474 -34.2442 TS 60 33 51
1892256N15343 1892 44 NA NA NOT_NAMED 1892-09-23 06:00:00 TS 43.4000 -32.5000 main 1621 1621 _____________O -1 43.4000 -32.5000 TS 60 35 49
1892256N15343 1892 44 NA NA NOT_NAMED 1892-09-23 09:00:00 TS 44.6169 -30.6263 main 1683 1529 _____________P -1 44.6169 -30.6263 TS 60 33 50
1892256N15343 1892 44 NA NA NOT_NAMED 1892-09-23 12:00:00 TS 45.5000 -29.0000 main 1523 1459 _____________O -1 45.5000 -29.0000 TS 60 21 62
1892256N15343 1892 44 NA NA NOT_NAMED 1892-09-23 15:00:00 TS 45.6098 -28.0104 main 1453 1421 _____________P -1 45.6098 -28.0104 TS 57 12 95
1892256N15343 1892 44 NA NA NOT_NAMED 1892-09-23 18:00:00 ET 45.4000 -27.3000 main 1421 1371 _____________O -1 45.4000 -27.3000 EX 55 12 103
1892256N15343 1892 44 NA NA NOT_NAMED 1892-09-23 21:00:00 ET 45.3496 -26.4001 main 1372 1310 _____________P -1 45.3496 -26.4001 EX 55 13 95
1892256N15343 1892 44 NA NA NOT_NAMED 1892-09-24 00:00:00 ET 45.3000 -25.5000 main 1310 1247 _____________O -1 45.3000 -25.5000 EX 55 12 95
1892256N15343 1892 44 NA NA NOT_NAMED 1892-09-24 03:00:00 ET 45.2415 -24.6498 main 1239 1177 _____________P -1 45.2415 -24.6498 EX 52 12 95
1892256N15343 1892 44 NA NA NOT_NAMED 1892-09-24 06:00:00 ET 45.2000 -23.8000 main 1177 1115 _____________O -1 45.2000 -23.8000 EX 50 12 92
1892256N15343 1892 44 NA NA NOT_NAMED 1892-09-24 09:00:00 ET 45.1917 -22.9128 main 1107 1045 _____________P -1 45.1917 -22.9128 EX 50 13 90
1892256N15343 1892 44 NA NA NOT_NAMED 1892-09-24 12:00:00 ET 45.2000 -22.0000 main 1038 _____________O -1 45.2000 -22.0000 EX 50 13 89

About IBTrACS Database

This database is a web-friendly format of International Best Track Archive for Climate Stewardship (IBTrACS), a global best track data archive curated by NOAA dating back to 1842.

Updated: 2021-10-25